createdAt,value
2022-11-19T00:01:48.654Z,99604.09
2022-11-19T00:04:50.059Z,99604.13
2022-11-19T00:07:52.469Z,99612.69
2022-11-19T00:10:53.862Z,99613.56
2022-11-19T00:13:55.248Z,99612.81
2022-11-19T00:16:56.627Z,99620.97
2022-11-19T00:19:58.020Z,99619.81
2022-11-19T00:23:00.295Z,99617.94
2022-11-19T00:26:05.723Z,99614.47
2022-11-19T00:29:07.130Z,99630.91
2022-11-19T00:32:08.554Z,99627.13
2022-11-19T00:35:10.117Z,99628.88
2022-11-19T00:38:11.553Z,99620.13
2022-11-19T00:41:12.977Z,99619.41
2022-11-19T00:44:14.485Z,99620.38
2022-11-19T00:47:16.759Z,99617.84
2022-11-19T00:50:18.348Z,99624.69
2022-11-19T00:53:19.733Z,99625.72
2022-11-19T00:56:23.995Z,99630.03
2022-11-19T00:59:25.410Z,99615.31
2022-11-19T01:02:26.782Z,99627.41
2022-11-19T01:05:28.192Z,99629.13
2022-11-19T01:08:30.248Z,99640.50
2022-11-19T01:11:33.745Z,99631.75
2022-11-19T01:14:35.133Z,99633.72
2022-11-19T01:17:36.528Z,99638.88
2022-11-19T01:20:37.987Z,99625.78
2022-11-19T01:23:41.047Z,99633.88
2022-11-19T01:26:45.706Z,99633.00
2022-11-19T01:29:47.896Z,99629.47
2022-11-19T01:32:49.284Z,99636.59
2022-11-19T01:36:02.440Z,99635.94
2022-11-19T01:39:06.276Z,99648.28
2022-11-19T01:42:39.776Z,99643.72
2022-11-19T01:45:44.516Z,99641.00
2022-11-19T01:48:57.339Z,99635.69
2022-11-19T01:52:02.674Z,99622.97
2022-11-19T01:55:04.370Z,99630.81
2022-11-19T01:58:07.109Z,99634.34
2022-11-19T02:01:10.480Z,99639.72
2022-11-19T02:04:14.764Z,99635.44
2022-11-19T02:07:18.658Z,99636.41
2022-11-19T02:10:26.746Z,99631.53
2022-11-19T02:13:48.957Z,99630.97
2022-11-19T02:17:16.800Z,99638.75
2022-11-19T02:20:26.890Z,99639.84
2022-11-19T02:24:09.547Z,99642.53
2022-11-19T02:27:32.870Z,99648.72
2022-11-19T02:30:41.960Z,99644.41
2022-11-19T02:33:54.544Z,99646.91
2022-11-19T02:37:16.224Z,99645.09
2022-11-19T02:40:28.309Z,99647.53
2022-11-19T02:43:36.412Z,99651.06
2022-11-19T02:46:38.433Z,99649.38
2022-11-19T02:49:44.296Z,99644.78
2022-11-19T02:52:46.901Z,99634.34
2022-11-19T02:56:06.953Z,99638.84
2022-11-19T02:59:26.888Z,99640.34
2022-11-19T03:02:54.195Z,99643.16
2022-11-19T03:06:04.486Z,99649.94
2022-11-19T03:09:05.902Z,99645.44
2022-11-19T03:12:20.470Z,99641.81
2022-11-19T03:15:50.583Z,99658.25
2022-11-19T03:19:19.788Z,99649.56
2022-11-19T03:22:26.832Z,99655.50
2022-11-19T03:25:53.178Z,99665.41
2022-11-19T03:28:58.193Z,99665.47
2022-11-19T03:32:06.916Z,99667.06
2022-11-19T03:35:14.320Z,99672.25
2022-11-19T03:38:26.473Z,99678.63
2022-11-19T03:41:29.588Z,99679.53
2022-11-19T03:44:39.901Z,99681.53
2022-11-19T03:47:43.187Z,99681.34
2022-11-19T03:51:03.497Z,99678.00
2022-11-19T03:54:05.001Z,99676.91
2022-11-19T03:57:09.150Z,99676.91
2022-11-19T04:00:11.373Z,99680.34
2022-11-19T04:03:16.536Z,99672.59
2022-11-19T04:06:17.949Z,99670.97
2022-11-19T04:09:19.497Z,99678.91
2022-11-19T04:12:24.223Z,99675.47
2022-11-19T04:15:25.947Z,99674.50
2022-11-19T04:18:27.419Z,99678.72
2022-11-19T04:21:28.865Z,99683.06
2022-11-19T04:24:30.461Z,99688.13
2022-11-19T04:27:31.984Z,99679.34
2022-11-19T04:30:33.477Z,99688.94
2022-11-19T04:33:34.884Z,99685.50
2022-11-19T04:36:36.448Z,99682.03
2022-11-19T04:39:38.118Z,99682.78
2022-11-19T04:42:39.798Z,99679.34
2022-11-19T04:45:41.190Z,99681.91
2022-11-19T04:48:42.605Z,99688.75
2022-11-19T04:51:44.147Z,99688.66
2022-11-19T04:54:45.712Z,99691.34
2022-11-19T04:57:47.168Z,99687.03
2022-11-19T05:00:48.885Z,99687.91
2022-11-19T05:03:50.642Z,99688.91
2022-11-19T05:06:52.071Z,99697.47
2022-11-19T05:09:53.462Z,99690.34
2022-11-19T05:12:54.869Z,99685.94
2022-11-19T05:15:56.297Z,99697.31
2022-11-19T05:18:57.764Z,99700.88
2022-11-19T05:21:59.163Z,99700.88
2022-11-19T05:25:00.556Z,99699.03
2022-11-19T05:28:01.995Z,99703.50
2022-11-19T05:31:04.098Z,99702.72
2022-11-19T05:34:05.653Z,99706.25
2022-11-19T05:37:07.040Z,99701.22
2022-11-19T05:40:08.883Z,99699.50
2022-11-19T05:43:10.281Z,99708.16
2022-11-19T05:46:11.669Z,99699.41
2022-11-19T05:49:13.110Z,99710.88
2022-11-19T05:52:14.509Z,99709.41
2022-11-19T05:55:16.796Z,99701.59
2022-11-19T05:58:18.256Z,99712.84
2022-11-19T06:01:27.946Z,99708.31
2022-11-19T06:04:29.357Z,99712.78
2022-11-19T06:07:31.000Z,99712.84
2022-11-19T06:10:32.666Z,99716.31
2022-11-19T06:13:34.102Z,99713.56
2022-11-19T06:16:35.483Z,99711.88
2022-11-19T06:19:36.969Z,99713.78
2022-11-19T06:22:38.814Z,99712.09
2022-11-19T06:25:40.274Z,99717.47
2022-11-19T06:28:41.654Z,99727.88
2022-11-19T06:31:43.512Z,99722.84
2022-11-19T06:34:44.890Z,99731.53
2022-11-19T06:37:46.306Z,99738.63
2022-11-19T06:40:48.243Z,99733.13
2022-11-19T06:43:49.744Z,99736.44
2022-11-19T06:46:51.205Z,99737.47
2022-11-19T06:49:52.624Z,99749.91
2022-11-19T06:52:54.009Z,99752.31
2022-11-19T06:56:03.368Z,99751.69
2022-11-19T06:59:04.749Z,99761.47
2022-11-19T07:02:07.286Z,99762.47
2022-11-19T07:05:08.951Z,99765.00
2022-11-19T07:08:10.361Z,99758.88
2022-11-19T07:11:26.764Z,99761.69
2022-11-19T07:14:28.187Z,99759.88
2022-11-19T07:17:29.672Z,99763.06
2022-11-19T07:20:31.104Z,99762.47
2022-11-19T07:23:32.486Z,99771.03
2022-11-19T07:26:35.138Z,99772.16
2022-11-19T07:29:36.772Z,99775.53
2022-11-19T07:32:38.164Z,99774.56
2022-11-19T07:35:39.704Z,99777.97
2022-11-19T07:38:41.100Z,99780.56
2022-11-19T07:42:01.478Z,99778.84
2022-11-19T07:45:03.149Z,99781.41
2022-11-19T07:48:04.672Z,99787.47
2022-11-19T07:51:06.196Z,99794.59
2022-11-19T07:54:09.233Z,99794.59
2022-11-19T07:57:11.905Z,99792.31
2022-11-19T08:00:13.852Z,99796.53
2022-11-19T08:03:15.289Z,99798.94
2022-11-19T08:06:18.539Z,99802.63
2022-11-19T08:09:20.276Z,99799.97
2022-11-19T08:12:21.951Z,99801.63
2022-11-19T08:15:23.336Z,99802.91
2022-11-19T08:18:29.882Z,99805.84
2022-11-19T08:21:32.588Z,99807.88
2022-11-19T08:24:34.004Z,99805.56
2022-11-19T08:27:35.450Z,99812.91
2022-11-19T08:30:39.782Z,99811.19
2022-11-19T08:33:41.264Z,99822.28
2022-11-19T08:36:43.271Z,99820.06
2022-11-19T08:39:44.647Z,99822.38
2022-11-19T08:43:00.894Z,99813.50
2022-11-19T08:46:02.287Z,99829.94
2022-11-19T08:49:03.965Z,99826.50
2022-11-19T08:52:05.378Z,99827.53
2022-11-19T08:55:08.193Z,99832.72
2022-11-19T08:58:11.328Z,99833.56
2022-11-19T09:01:15.347Z,99833.00
2022-11-19T09:04:17.453Z,99835.94
2022-11-19T09:07:19.260Z,99836.63
2022-11-19T09:10:20.757Z,99847.63
2022-11-19T09:13:22.296Z,99847.06
2022-11-19T09:16:23.679Z,99841.81
2022-11-19T09:19:25.140Z,99845.25
2022-11-19T09:22:26.740Z,99849.63
2022-11-19T09:25:29.163Z,99847.06
2022-11-19T09:28:31.089Z,99855.78
2022-11-19T09:31:32.512Z,99852.47
2022-11-19T09:34:35.129Z,99856.00
2022-11-19T09:37:36.620Z,99857.66
2022-11-19T09:40:38.067Z,99858.72
2022-11-19T09:44:22.653Z,99859.56
2022-11-19T09:47:46.134Z,99866.84
2022-11-19T09:50:51.927Z,99868.47
2022-11-19T09:54:05.808Z,99870.13
2022-11-19T09:57:13.613Z,99868.66
2022-11-19T10:00:20.536Z,99867.69
2022-11-19T10:03:27.399Z,99864.22
2022-11-19T10:06:54.508Z,99871.91
2022-11-19T10:10:17.616Z,99865.31
2022-11-19T10:13:37.452Z,99874.06
2022-11-19T10:17:24.073Z,99887.66
2022-11-19T10:20:42.648Z,99886.00
2022-11-19T10:24:08.199Z,99884.72
2022-11-19T10:27:23.058Z,99881.91
2022-11-19T10:30:28.326Z,99882.31
2022-11-19T10:33:37.263Z,99878.09
2022-11-19T10:36:49.811Z,99885.06
2022-11-19T10:40:02.514Z,99884.38
2022-11-19T10:43:23.430Z,99885.44
2022-11-19T10:46:26.111Z,99889.78
2022-11-19T10:49:27.533Z,99879.03
2022-11-19T10:52:33.951Z,99901.50
2022-11-19T10:55:39.474Z,99897.72
2022-11-19T10:59:01.080Z,99901.91
2022-11-19T11:02:28.132Z,99892.13
2022-11-19T11:05:31.258Z,99902.38
2022-11-19T11:08:33.894Z,99902.81
2022-11-19T11:11:54.236Z,99906.16
2022-11-19T11:15:00.763Z,99905.97
2022-11-19T11:18:03.503Z,99901.59
2022-11-19T11:21:05.184Z,99907.13
2022-11-19T11:24:07.453Z,99903.81
2022-11-19T11:27:30.845Z,99901.97
2022-11-19T11:30:32.511Z,99901.34
2022-11-19T11:33:38.424Z,99905.13
2022-11-19T11:36:40.108Z,99902.53
2022-11-19T11:39:44.589Z,99909.84
2022-11-19T11:42:46.279Z,99911.75
2022-11-19T11:45:56.935Z,99901.31
2022-11-19T11:49:04.802Z,99903.06
2022-11-19T11:52:11.327Z,99900.28
2022-11-19T11:55:14.722Z,99907.00
2022-11-19T11:58:34.295Z,99910.47
2022-11-19T12:01:37.108Z,99909.19
2022-11-19T12:04:38.768Z,99909.75
2022-11-19T12:08:04.761Z,99905.94
2022-11-19T12:11:28.186Z,99910.16
2022-11-19T12:14:44.808Z,99908.50
2022-11-19T12:17:55.866Z,99907.13
2022-11-19T12:21:29.553Z,99920.66
2022-11-19T12:24:37.086Z,99930.22
2022-11-19T12:27:51.704Z,99928.75
2022-11-19T12:31:20.996Z,99931.28
2022-11-19T12:34:56.683Z,99918.75
2022-11-19T12:38:17.029Z,99908.06
2022-11-19T12:41:31.521Z,99922.25
2022-11-19T12:44:45.671Z,99919.44
2022-11-19T12:47:58.918Z,99920.94
2022-11-19T12:51:09.882Z,99917.91
2022-11-19T12:54:35.756Z,99926.91
2022-11-19T12:58:01.766Z,99921.41
2022-11-19T13:01:16.577Z,99934.97
2022-11-19T13:04:32.095Z,99937.28
2022-11-19T13:07:38.783Z,99929.38
2022-11-19T13:10:45.143Z,99935.13
2022-11-19T13:13:52.609Z,99936.75
2022-11-19T13:16:55.787Z,99935.13
2022-11-19T13:20:23.742Z,99942.09
2022-11-19T13:23:35.371Z,99943.69
2022-11-19T13:26:37.340Z,99943.66
2022-11-19T13:29:53.863Z,99942.81
2022-11-19T13:33:14.075Z,99948.91
2022-11-19T13:36:22.554Z,99953.53
2022-11-19T13:39:58.261Z,99947.13
2022-11-19T13:43:34.418Z,99944.06
2022-11-19T13:46:44.596Z,99949.47
2022-11-19T13:50:00.625Z,99947.72
2022-11-19T13:53:07.537Z,99954.72
2022-11-19T13:56:14.432Z,99949.63
2022-11-19T13:59:43.206Z,99950.78
2022-11-19T14:03:07.917Z,99950.25
2022-11-19T14:06:39.139Z,99957.22
2022-11-19T14:09:45.316Z,99956.38
2022-11-19T14:12:58.513Z,99957.00
2022-11-19T14:16:54.309Z,99958.84
2022-11-19T14:20:15.665Z,99951.88
2022-11-19T14:23:54.931Z,99957.00
2022-11-19T14:27:24.074Z,99957.84
2022-11-19T14:31:01.992Z,99958.81
2022-11-19T14:34:04.319Z,99957.09
2022-11-19T14:37:18.961Z,99960.59
2022-11-19T14:40:32.751Z,99959.59
2022-11-19T14:44:08.409Z,99970.91
2022-11-19T14:47:21.705Z,99971.78
2022-11-19T14:50:28.829Z,99970.28
2022-11-19T14:53:30.348Z,99972.03
2022-11-19T14:56:34.618Z,99972.81
2022-11-19T14:59:38.228Z,99965.09
2022-11-19T15:02:46.068Z,99965.94
2022-11-19T15:05:47.935Z,99973.00
2022-11-19T15:08:52.417Z,99976.28
2022-11-19T15:11:56.901Z,99980.53
2022-11-19T15:15:20.836Z,99974.44
2022-11-19T15:18:37.217Z,99975.63
2022-11-19T15:21:57.600Z,99975.56
2022-11-19T15:25:22.266Z,99982.03
2022-11-19T15:28:53.833Z,99982.91
2022-11-19T15:32:01.113Z,99982.31
2022-11-19T15:35:24.248Z,99975.13
2022-11-19T15:38:52.384Z,99974.25
2022-11-19T15:42:01.099Z,99981.25
2022-11-19T15:45:11.515Z,99969.72
2022-11-19T15:48:19.419Z,99971.13
2022-11-19T15:51:22.799Z,99977.13
2022-11-19T15:54:32.803Z,99985.91
2022-11-19T15:57:34.606Z,99983.25
2022-11-19T16:00:48.352Z,99997.34
2022-11-19T16:03:53.336Z,99981.50
2022-11-19T16:06:55.783Z,99980.53
2022-11-19T16:09:58.883Z,99985.88
2022-11-19T16:13:21.043Z,99976.22
2022-11-19T16:16:44.811Z,99986.88
2022-11-19T16:20:14.191Z,99995.44
2022-11-19T16:23:20.931Z,99994.44
2022-11-19T16:26:22.559Z,99995.06
2022-11-19T16:29:25.978Z,99993.63
2022-11-19T16:32:27.739Z,99988.41
2022-11-19T16:35:32.360Z,99995.06
2022-11-19T16:38:33.911Z,99998.69
2022-11-19T16:41:54.123Z,99998.69
2022-11-19T16:45:04.872Z,99995.84
2022-11-19T16:48:08.143Z,99996.13
2022-11-19T16:51:33.263Z,99997.22
2022-11-19T16:54:45.772Z,99996.09
2022-11-19T16:57:49.373Z,100007.34
2022-11-19T17:00:55.379Z,100005.66
2022-11-19T17:04:03.976Z,100003.38
2022-11-19T17:07:14.426Z,100018.16
2022-11-19T17:10:30.126Z,100017.84
2022-11-19T17:13:32.314Z,100011.59
2022-11-19T17:16:35.217Z,100011.88
2022-11-19T17:19:36.932Z,100013.47
2022-11-19T17:22:39.763Z,100020.69
2022-11-19T17:25:49.516Z,100019.88
2022-11-19T17:28:54.612Z,100033.06
2022-11-19T17:31:56.516Z,100038.19
2022-11-19T17:34:58.111Z,100044.00
2022-11-19T17:38:09.733Z,100049.44
2022-11-19T17:41:15.264Z,100045.13
2022-11-19T17:44:31.560Z,100044.28
2022-11-19T17:47:32.975Z,100048.88
2022-11-19T17:50:34.360Z,100058.34
2022-11-19T17:53:35.767Z,100057.06
2022-11-19T17:56:37.182Z,100058.78
2022-11-19T17:59:38.588Z,100054.50
2022-11-19T18:02:40.002Z,100059.09
2022-11-19T18:05:46.250Z,100058.34
2022-11-19T18:08:47.722Z,100071.41
2022-11-19T18:11:49.099Z,100058.16
2022-11-19T18:14:50.571Z,100059.88
2022-11-19T18:17:52.071Z,100063.16
2022-11-19T18:20:57.618Z,100065.00
2022-11-19T18:24:02.300Z,100068.56
2022-11-19T18:27:03.740Z,100067.88
2022-11-19T18:30:05.696Z,100069.78
2022-11-19T18:33:09.228Z,100063.69
2022-11-19T18:36:10.927Z,100075.09
2022-11-19T18:39:12.650Z,100077.63
2022-11-19T18:42:14.173Z,100082.84
2022-11-19T18:45:15.645Z,100079.19
2022-11-19T18:48:17.134Z,100073.91
2022-11-19T18:51:18.632Z,100080.88
2022-11-19T18:54:20.190Z,100085.50
2022-11-19T18:57:22.425Z,100083.16
2022-11-19T19:00:23.902Z,100082.16
2022-11-19T19:03:25.388Z,100085.84
2022-11-19T19:06:26.790Z,100089.16
2022-11-19T19:09:28.239Z,100098.81
2022-11-19T19:12:29.695Z,100100.44
2022-11-19T19:15:31.076Z,100081.03
2022-11-19T19:18:32.448Z,100090.34
2022-11-19T19:21:33.862Z,100100.19
2022-11-19T19:24:35.268Z,100104.72
2022-11-19T19:27:36.653Z,100101.06
2022-11-19T19:30:38.356Z,100097.53
2022-11-19T19:33:39.822Z,100101.91
2022-11-19T19:36:41.508Z,100098.44
2022-11-19T19:39:42.887Z,100097.53
2022-11-19T19:42:44.329Z,100102.75
2022-11-19T19:45:45.868Z,100105.41
2022-11-19T19:48:50.239Z,100102.75
2022-11-19T19:51:51.640Z,100113.03
2022-11-19T19:54:53.059Z,100121.09
2022-11-19T19:57:55.097Z,100121.88
2022-11-19T20:01:05.863Z,100127.94
2022-11-19T20:04:10.179Z,100122.72
2022-11-19T20:07:11.605Z,100133.16
2022-11-19T20:10:13.053Z,100132.34
2022-11-19T20:13:31.851Z,100137.63
2022-11-19T20:16:34.910Z,100139.50
2022-11-19T20:19:36.551Z,100139.50
2022-11-19T20:22:37.967Z,100147.50
2022-11-19T20:25:39.484Z,100143.09
2022-11-19T20:28:41.429Z,100137.88
2022-11-19T20:31:47.803Z,100142.31
2022-11-19T20:34:49.232Z,100129.25
2022-11-19T20:37:50.639Z,100126.59
2022-11-19T20:41:03.563Z,100130.84
2022-11-19T20:44:21.696Z,100127.41
2022-11-19T20:47:23.503Z,100138.09
2022-11-19T20:50:24.911Z,100140.81
2022-11-19T20:53:26.861Z,100141.59
2022-11-19T20:56:28.243Z,100135.50
2022-11-19T20:59:30.690Z,100141.63
2022-11-19T21:02:32.336Z,100145.38
2022-11-19T21:05:33.897Z,100154.06
2022-11-19T21:08:36.100Z,100150.66
2022-11-19T21:11:38.245Z,100149.00
2022-11-19T21:14:39.760Z,100141.09
2022-11-19T21:17:41.167Z,100135.69
2022-11-19T21:20:42.609Z,100139.19
2022-11-19T21:23:44.506Z,100141.81
2022-11-19T21:26:46.005Z,100136.66
2022-11-19T21:29:47.397Z,100133.09
2022-11-19T21:32:48.827Z,100129.59
2022-11-19T21:35:50.239Z,100142.72
2022-11-19T21:38:51.647Z,100143.00
2022-11-19T21:41:53.077Z,100139.69
2022-11-19T21:44:54.459Z,100137.38
2022-11-19T21:47:55.892Z,100139.97
2022-11-19T21:50:57.350Z,100147.69
2022-11-19T21:53:59.542Z,100152.72
2022-11-19T21:57:00.993Z,100137.88
2022-11-19T22:00:02.375Z,100142.13
2022-11-19T22:03:04.951Z,100156.03
2022-11-19T22:06:08.873Z,100152.66
2022-11-19T22:09:10.246Z,100151.84
2022-11-19T22:12:11.654Z,100149.94
2022-11-19T22:15:13.130Z,100156.06
2022-11-19T22:18:14.620Z,100150.84
2022-11-19T22:21:16.057Z,100138.66
2022-11-19T22:24:18.083Z,100135.09
2022-11-19T22:27:19.524Z,100128.91
2022-11-19T22:30:20.933Z,100130.53
2022-11-19T22:33:22.335Z,100148.06
2022-11-19T22:36:23.943Z,100140.13
2022-11-19T22:39:25.777Z,100139.25
2022-11-19T22:42:27.249Z,100128.72
2022-11-19T22:45:28.639Z,100132.22
2022-11-19T22:48:31.583Z,100136.59
2022-11-19T22:51:33.086Z,100147.03
2022-11-19T22:54:40.139Z,100128.75
2022-11-19T22:57:42.991Z,100134.09
2022-11-19T23:00:47.301Z,100132.56
2022-11-19T23:03:49.521Z,100131.59
2022-11-19T23:06:50.898Z,100132.53
2022-11-19T23:09:52.344Z,100140.31
2022-11-19T23:13:12.132Z,100129.16
2022-11-19T23:16:14.989Z,100124.00
2022-11-19T23:19:19.198Z,100122.19
2022-11-19T23:22:20.955Z,100116.09
2022-11-19T23:25:22.646Z,100103.84
2022-11-19T23:28:29.368Z,100117.84
2022-11-19T23:31:35.942Z,100108.28
2022-11-19T23:34:37.361Z,100104.78
2022-11-19T23:37:38.768Z,100109.22
2022-11-19T23:40:40.225Z,100111.75
2022-11-19T23:43:42.138Z,100111.81
2022-11-19T23:46:43.622Z,100117.94
2022-11-19T23:49:45.010Z,100110.72
2022-11-19T23:52:46.552Z,100104.59
2022-11-19T23:55:47.928Z,100090.63
2022-11-19T23:58:49.741Z,100090.63
